createdAt,value
2019-06-01T00:00:11.569Z,1022.65
2019-06-01T00:05:03.136Z,1022.62
2019-06-01T00:10:01.822Z,1022.58
2019-06-01T00:15:03.411Z,1022.6
2019-06-01T00:20:02.867Z,1022.62
2019-06-01T00:25:03.476Z,1022.52
2019-06-01T00:30:03.023Z,1022.51
2019-06-01T00:35:02.564Z,1022.44
2019-06-01T00:40:03.120Z,1022.48
2019-06-01T00:45:02.766Z,1022.39
2019-06-01T00:50:03.237Z,1022.41
2019-06-01T00:55:02.750Z,1022.31
2019-06-01T01:00:03.207Z,1022.25
2019-06-01T01:05:02.764Z,1022.36
2019-06-01T01:10:03.402Z,1022.27
2019-06-01T01:15:02.922Z,1022.25
2019-06-01T01:20:02.536Z,1022.29
2019-06-01T01:25:03.066Z,1022.34
2019-06-01T01:30:02.582Z,1022.43
2019-06-01T01:35:03.155Z,1022.47
2019-06-01T01:40:02.711Z,1022.47
2019-06-01T01:45:03.290Z,1022.4
2019-06-01T01:50:03.058Z,1022.38
2019-06-01T01:55:03.363Z,1022.34
2019-06-01T02:00:02.883Z,1022.37
2019-06-01T02:05:03.336Z,1022.33
2019-06-01T02:10:02.830Z,1022.34
2019-06-01T02:15:03.333Z,1022.4
2019-06-01T02:20:02.811Z,1022.39
2019-06-01T02:25:04.082Z,1022.47
2019-06-01T02:30:05.322Z,1022.42
2019-06-01T02:35:04.872Z,1022.45
2019-06-01T02:40:03.288Z,1022.44
2019-06-01T02:45:03.657Z,1022.36
2019-06-01T02:50:04.481Z,1022.36
2019-06-01T02:55:02.453Z,1022.38
2019-06-01T03:00:03.083Z,1022.39
2019-06-01T03:05:03.282Z,1022.38
2019-06-01T03:10:03.138Z,1022.4
2019-06-01T03:15:02.729Z,1022.36
2019-06-01T03:20:04.514Z,1022.39
2019-06-01T03:25:03.865Z,1022.38
2019-06-01T03:30:05.795Z,1022.41
2019-06-01T03:35:03.074Z,1022.41
2019-06-01T03:40:05.690Z,1022.42
2019-06-01T03:45:03.466Z,1022.39
2019-06-01T03:50:03.032Z,1022.45
2019-06-01T03:55:03.659Z,1022.49
2019-06-01T04:00:03.381Z,1022.48
2019-06-01T04:05:03.610Z,1022.48
2019-06-01T04:10:03.880Z,1022.54
2019-06-01T04:15:08.376Z,1022.62
2019-06-01T04:20:03.929Z,1022.62
2019-06-01T04:25:03.984Z,1022.66
2019-06-01T04:30:02.583Z,1022.62
2019-06-01T04:35:03.493Z,1022.59
2019-06-01T04:40:03.388Z,1022.54
2019-06-01T04:45:04.280Z,1022.63
2019-06-01T04:50:02.899Z,1022.61
2019-06-01T04:55:05.161Z,1022.48
2019-06-01T05:00:08.211Z,1022.44
2019-06-01T05:05:03.308Z,1022.49
2019-06-01T05:10:02.775Z,1022.49
2019-06-01T05:15:03.233Z,1022.51
2019-06-01T05:20:02.761Z,1022.58
2019-06-01T05:25:03.352Z,1022.5
2019-06-01T05:30:02.912Z,1022.59
2019-06-01T05:35:03.361Z,1022.64
2019-06-01T05:40:02.796Z,1022.68
2019-06-01T05:45:03.266Z,1022.8
2019-06-01T05:50:01.901Z,1022.81
2019-06-01T05:55:02.538Z,1022.84
2019-06-01T06:00:03.009Z,1022.84
2019-06-01T06:05:02.457Z,1022.87
2019-06-01T06:10:03.280Z,1022.7
2019-06-01T06:15:02.789Z,1022.71
2019-06-01T06:20:03.255Z,1022.69
2019-06-01T06:25:02.764Z,1022.61
2019-06-01T06:30:03.235Z,1022.51
2019-06-01T06:35:02.760Z,1022.5
2019-06-01T06:40:03.225Z,1022.53
2019-06-01T06:45:03.738Z,1022.44
2019-06-01T06:50:03.372Z,1022.47
2019-06-01T06:55:02.837Z,1022.46
2019-06-01T07:00:03.478Z,1022.4
2019-06-01T07:05:02.950Z,1022.37
2019-06-01T07:10:03.443Z,1022.41
2019-06-01T07:15:02.929Z,1022.53
2019-06-01T07:20:03.412Z,1022.4
2019-06-01T07:25:02.871Z,1022.4
2019-06-01T07:30:03.344Z,1022.47
2019-06-01T07:35:02.876Z,1022.49
2019-06-01T07:40:03.434Z,1022.47
2019-06-01T07:45:02.993Z,1022.5
2019-06-01T07:50:02.461Z,1022.41
2019-06-01T07:55:03.020Z,1022.43
2019-06-01T08:00:02.531Z,1022.39
2019-06-01T08:05:02.978Z,1022.39
2019-06-01T08:10:02.456Z,1022.44
2019-06-01T08:15:02.935Z,1022.34
2019-06-01T08:20:03.381Z,1022.39
2019-06-01T08:25:02.056Z,1022.32
2019-06-01T08:30:02.519Z,1022.34
2019-06-01T08:35:08.376Z,1022.39
2019-06-01T08:40:02.898Z,1022.26
2019-06-01T08:45:03.511Z,1022.25
2019-06-01T08:50:02.970Z,1022.27
2019-06-01T08:55:02.529Z,1022.25
2019-06-01T09:00:03.062Z,1022.21
2019-06-01T09:05:02.548Z,1022.1
2019-06-01T09:10:03.081Z,1022.14
2019-06-01T09:15:02.638Z,1022.07
2019-06-01T09:20:03.141Z,1022.05
2019-06-01T09:25:02.715Z,1022.11
2019-06-01T09:30:03.295Z,1022.13
2019-06-01T09:35:02.842Z,1022.08
2019-06-01T09:40:03.358Z,1022.04
2019-06-01T09:45:02.820Z,1021.99
2019-06-01T09:50:03.407Z,1022.03
2019-06-01T09:55:03.006Z,1021.97
2019-06-01T10:00:02.603Z,1021.92
2019-06-01T10:05:03.257Z,1021.9
2019-06-01T10:10:02.761Z,1021.85
2019-06-01T10:15:03.356Z,1021.88
2019-06-01T10:20:02.969Z,1021.78
2019-06-01T10:25:02.410Z,1021.77
2019-06-01T10:30:02.914Z,1021.77
2019-06-01T10:35:03.468Z,1021.86
2019-06-01T10:40:03.069Z,1021.84
2019-06-01T10:45:02.737Z,1021.81
2019-06-01T10:50:03.241Z,1021.82
2019-06-01T10:55:02.691Z,1021.71
2019-06-01T11:00:03.294Z,1021.71
2019-06-01T11:05:02.845Z,1021.57
2019-06-01T11:10:03.307Z,1021.56
2019-06-01T11:15:02.821Z,1021.53
2019-06-01T11:20:03.309Z,1021.55
2019-06-01T11:25:02.907Z,1021.5
2019-06-01T11:30:03.443Z,1021.44
2019-06-01T11:35:02.952Z,1021.35
2019-06-01T11:40:02.432Z,1021.32
2019-06-01T11:45:03.014Z,1021.32
2019-06-01T11:50:02.506Z,1021.29
2019-06-01T11:55:03.075Z,1021.21
2019-06-01T12:00:02.566Z,1021.14
2019-06-01T12:05:03.141Z,1021.14
2019-06-01T12:10:02.673Z,1021.01
2019-06-01T12:15:03.239Z,1020.91
2019-06-01T12:20:02.828Z,1020.91
2019-06-01T12:25:03.371Z,1020.83
2019-06-01T12:30:02.872Z,1020.8
2019-06-01T12:35:03.758Z,1020.83
2019-06-01T12:40:07.476Z,1020.74
2019-06-01T12:45:03.317Z,1020.6
2019-06-01T12:50:02.982Z,1020.55
2019-06-01T12:55:02.529Z,1020.6
2019-06-01T13:00:03.123Z,1020.53
2019-06-01T13:05:02.602Z,1020.5
2019-06-01T13:10:03.252Z,1020.45
2019-06-01T13:15:02.741Z,1020.29
2019-06-01T13:20:03.390Z,1020.29
2019-06-01T13:25:02.915Z,1020.24
2019-06-01T13:30:02.713Z,1020.18
2019-06-01T13:35:03.207Z,1020.05
2019-06-01T13:40:02.680Z,1020.08
2019-06-01T13:45:03.297Z,1020.02
2019-06-01T13:50:06.516Z,1020.03
2019-06-01T13:55:03.534Z,1019.98
2019-06-01T14:00:03.034Z,1019.89
2019-06-01T14:05:02.510Z,1019.73
2019-06-01T14:10:03.054Z,1019.76
2019-06-01T14:15:02.609Z,1019.75
2019-06-01T14:20:03.384Z,1019.78
2019-06-01T14:25:12.344Z,1019.79
2019-06-01T14:30:03.458Z,1019.77
2019-06-01T14:35:03.019Z,1019.67
2019-06-01T14:40:02.568Z,1019.61
2019-06-01T14:45:03.178Z,1019.61
2019-06-01T14:50:02.731Z,1019.59
2019-06-01T14:55:03.321Z,1019.54
2019-06-01T15:00:02.858Z,1019.53
2019-06-01T15:05:03.500Z,1019.47
2019-06-01T15:10:03.006Z,1019.38
2019-06-01T15:15:03.204Z,1019.34
2019-06-01T15:20:03.039Z,1019.3
2019-06-01T15:25:03.595Z,1019.38
2019-06-01T15:30:03.379Z,1019.27
2019-06-01T15:35:03.321Z,1019.3
2019-06-01T15:40:03.152Z,1019.29
2019-06-01T15:45:02.911Z,1019.17
2019-06-01T15:50:03.539Z,1019.07
2019-06-01T15:55:03.090Z,1019.15
2019-06-01T16:00:03.124Z,1019.0
2019-06-01T16:05:03.340Z,1018.99
2019-06-01T16:10:06.462Z,1018.98
2019-06-01T16:15:03.878Z,1018.94
2019-06-01T16:20:04.093Z,1018.92
2019-06-01T16:25:02.675Z,1018.88
2019-06-01T16:30:03.865Z,1018.89
2019-06-01T16:35:03.200Z,1018.87
2019-06-01T16:40:07.712Z,1018.86
2019-06-01T16:45:03.613Z,1018.92
2019-06-01T16:50:03.872Z,1018.86
2019-06-01T16:55:05.001Z,1018.88
2019-06-01T17:00:03.267Z,1018.82
2019-06-01T17:05:02.987Z,1018.82
2019-06-01T17:10:19.478Z,1018.86
2019-06-01T17:15:03.286Z,1018.75
2019-06-01T17:20:03.325Z,1018.74
2019-06-01T17:25:03.732Z,1018.73
2019-06-01T17:30:06.961Z,1018.66
2019-06-01T17:35:03.719Z,1018.63
2019-06-01T17:40:02.642Z,1018.62
2019-06-01T17:45:04.423Z,1018.63
2019-06-01T17:50:03.943Z,1018.55
2019-06-01T17:55:03.215Z,1018.53
2019-06-01T18:00:03.500Z,1018.54
2019-06-01T18:05:04.046Z,1018.52
2019-06-01T18:10:04.492Z,1018.45
2019-06-01T18:15:03.989Z,1018.41
2019-06-01T18:20:02.537Z,1018.42
2019-06-01T18:25:04.373Z,1018.44
2019-06-01T18:30:03.063Z,1018.44
2019-06-01T18:35:03.040Z,1018.33
2019-06-01T18:40:03.893Z,1018.38
2019-06-01T18:45:03.638Z,1018.33
2019-06-01T18:50:04.098Z,1018.32
2019-06-01T18:55:04.159Z,1018.34
2019-06-01T19:00:04.148Z,1018.29
2019-06-01T19:05:02.664Z,1018.31
2019-06-01T19:10:03.306Z,1018.22
2019-06-01T19:15:03.098Z,1018.21
2019-06-01T19:20:02.715Z,1018.2
2019-06-01T19:25:03.205Z,1018.17
2019-06-01T19:30:02.630Z,1018.18
2019-06-01T19:35:03.375Z,1018.27
2019-06-01T19:40:02.878Z,1018.23
2019-06-01T19:45:03.693Z,1018.28
2019-06-01T19:50:03.227Z,1018.29
2019-06-01T19:55:02.690Z,1018.3
2019-06-01T20:00:03.227Z,1018.34
2019-06-01T20:05:02.733Z,1018.43
2019-06-01T20:10:03.397Z,1018.41
2019-06-01T20:15:02.991Z,1018.45
2019-06-01T20:20:02.552Z,1018.44
2019-06-01T20:25:03.091Z,1018.44
2019-06-01T20:30:02.535Z,1018.33
2019-06-01T20:35:03.041Z,1018.25
2019-06-01T20:40:02.560Z,1018.3
2019-06-01T20:45:03.156Z,1018.28
2019-06-01T20:50:02.660Z,1018.25
2019-06-01T20:55:03.203Z,1018.16
2019-06-01T21:00:02.694Z,1018.18
2019-06-01T21:05:03.416Z,1018.1
2019-06-01T21:10:02.882Z,1018.17
2019-06-01T21:15:03.411Z,1018.08
2019-06-01T21:20:04.606Z,1018.11
2019-06-01T21:25:03.475Z,1018.09
2019-06-01T21:30:02.943Z,1018.01
2019-06-01T21:35:03.438Z,1018.0
2019-06-01T21:40:03.014Z,1018.06
2019-06-01T21:45:02.476Z,1018.1
2019-06-01T21:50:03.011Z,1018.05
2019-06-01T21:55:02.667Z,1018.05
2019-06-01T22:00:03.190Z,1018.0
2019-06-01T22:05:02.743Z,1017.97
2019-06-01T22:10:03.283Z,1017.94
2019-06-01T22:15:02.780Z,1017.94
2019-06-01T22:20:03.239Z,1017.9
2019-06-01T22:25:02.878Z,1017.81
2019-06-01T22:30:03.333Z,1017.81
2019-06-01T22:35:03.295Z,1017.76
2019-06-01T22:40:03.264Z,1017.82
2019-06-01T22:45:02.795Z,1017.84
2019-06-01T22:50:03.308Z,1017.72
2019-06-01T22:55:02.799Z,1017.75
2019-06-01T23:00:08.423Z,1017.73
2019-06-01T23:05:03.306Z,1017.69
2019-06-01T23:10:02.869Z,1017.69
2019-06-01T23:15:03.387Z,1017.47
2019-06-01T23:20:02.934Z,1017.51
2019-06-01T23:25:03.377Z,1017.38
2019-06-01T23:30:02.904Z,1017.4
2019-06-01T23:35:03.446Z,1017.35
2019-06-01T23:40:03.060Z,1017.3
2019-06-01T23:45:02.589Z,1017.19
2019-06-01T23:50:03.128Z,1017.2
2019-06-01T23:55:02.746Z,1017.13
